Time;durP1;ratioP1;P1;durP2;ratioP2;P2;SDS_P1;SDS_P2;PMS_P1;PMS_P2;Temp;Humidity;BMP_temperature;BMP_pressure;BME280_temperature;BME280_humidity;BME280_pressure;Samples;Min_cycle;Max_cycle;Signal;HPM_P1;HPM_P2
2021/12/14 00:02:58;;;;;;;191.48;60.75;;;;;;;0.12;100.00;100780.94;5021096;28;20057;-71
2021/12/14 00:05:48;;;;;;;224.23;64.85;;;;;;;0.19;100.00;100788.03;5032056;28;20038;-71
2021/12/14 00:08:37;;;;;;;146.40;59.22;;;;;;;0.14;100.00;100769.84;5032855;28;20041;-71
2021/12/14 00:15:03;;;;;;;150.73;59.92;;;;;;;0.09;100.00;100773.09;5032828;28;20042;-71
2021/12/14 00:17:48;;;;;;;180.80;62.90;;;;;;;0.09;100.00;100767.94;5031874;28;20067;-71
2021/12/14 00:20:37;;;;;;;177.95;64.25;;;;;;;0.09;100.00;100763.66;5032674;28;20102;-71
2021/12/14 00:26:29;;;;;;;195.35;69.60;;;;;;;0.12;100.00;100768.03;5031788;28;20065;-71
2021/12/14 00:29:21;;;;;;;258.75;75.13;;;;;;;0.19;100.00;100775.16;5031757;28;20050;-71
2021/12/14 00:32:17;;;;;;;202.77;70.85;;;;;;;0.16;100.00;100782.78;5032585;28;20041;-71
2021/12/14 00:35:10;;;;;;;183.35;65.57;;;;;;;0.18;100.00;100776.84;5032416;28;20037;-71
2021/12/14 00:37:56;;;;;;;175.07;66.78;;;;;;;0.14;100.00;100780.16;5031661;28;20171;-71
2021/12/14 00:40:47;;;;;;;167.93;63.55;;;;;;;0.14;100.00;100772.44;5032413;28;20113;-71
2021/12/14 00:43:32;;;;;;;164.55;66.68;;;;;;;0.07;100.00;100774.78;5031641;28;20046;-71
2021/12/14 00:46:17;;;;;;;165.43;66.93;;;;;;;0.11;100.00;100768.88;5031619;28;20041;-71
2021/12/14 00:49:08;;;;;;;174.30;63.72;;;;;;;0.11;100.00;100782.63;5034728;28;20049;-71
2021/12/14 00:51:54;;;;;;;166.18;67.22;;;;;;;0.16;100.00;100781.09;5034990;28;20046;-71
2021/12/14 00:54:39;;;;;;;196.55;71.15;;;;;;;0.14;100.00;100774.13;5034943;28;20420;-71
2021/12/14 00:57:24;;;;;;;179.82;70.25;;;;;;;0.16;100.00;100775.94;5034905;28;20053;-71
2021/12/14 01:00:14;;;;;;;176.77;71.05;;;;;;;0.13;100.00;100769.78;5034767;28;20053;-71
2021/12/14 01:03:00;;;;;;;192.77;72.65;;;;;;;0.12;100.00;100768.91;5034712;28;20368;-71
2021/12/14 01:05:49;;;;;;;176.30;66.90;;;;;;;0.10;100.00;100777.41;5034818;28;20388;-71
2021/12/14 01:08:38;;;;;;;189.82;67.55;;;;;;;0.14;100.00;100777.59;5034898;28;20041;-71
2021/12/14 01:11:30;;;;;;;181.80;66.25;;;;;;;0.10;100.00;100780.00;5034858;28;20550;-71
2021/12/14 01:15:42;;;;;;;226.98;68.50;;;;;;;0.15;100.00;100783.59;5034811;28;20049;-71
2021/12/14 01:18:28;;;;;;;166.05;61.97;;;;;;;0.14;100.00;100779.28;5034648;28;20045;-71
2021/12/14 01:21:43;;;;;;;158.35;60.47;;;;;;;0.14;100.00;100782.75;5020646;28;20042;-71
2021/12/14 01:27:25;;;;;;;148.95;59.90;;;;;;;0.17;100.00;100785.41;5034369;28;20041;-71
2021/12/14 01:30:30;;;;;;;169.30;58.83;;;;;;;0.11;100.00;100797.22;5020084;28;20458;-71
2021/12/14 01:33:16;;;;;;;129.80;53.70;;;;;;;0.11;100.00;100790.38;5034295;28;20465;-71
2021/12/14 01:36:08;;;;;;;144.90;51.78;;;;;;;0.14;100.00;100799.91;5034471;28;20049;-71
2021/12/14 01:39:20;;;;;;;;;;;;;;;0.15;100.00;100788.75;5021051;28;20046;-71
2021/12/14 01:42:21;;;;;;;178.43;54.90;;;;;;;0.13;100.00;100791.31;5034201;28;19921;-71
2021/12/14 01:45:17;;;;;;;133.35;54.28;;;;;;;0.16;100.00;100793.06;5034222;28;20058;-71
2021/12/14 01:48:03;;;;;;;133.57;51.67;;;;;;;0.14;100.00;100794.75;5034785;28;20443;-71
2021/12/14 01:51:22;;;;;;;132.40;52.50;;;;;;;0.08;100.00;100785.09;5034042;28;20057;-71
2021/12/14 01:54:18;;;;;;;132.32;51.85;;;;;;;0.09;100.00;100792.00;5021207;28;20447;-71
2021/12/14 01:57:17;;;;;;;127.45;51.90;;;;;;;0.14;100.00;100789.59;5020076;28;20049;-71
2021/12/14 02:00:09;;;;;;;129.95;53.65;;;;;;;0.11;100.00;100792.06;5033585;28;20053;-71
2021/12/14 02:03:05;;;;;;;131.07;54.05;;;;;;;0.12;100.00;100788.66;5034564;28;20108;-71
2021/12/14 02:05:51;;;;;;;140.40;53.38;;;;;;;-0.05;100.00;100788.97;5019835;28;20064;-71
2021/12/14 02:08:37;;;;;;;116.00;50.45;;;;;;;0.06;100.00;100783.31;5019950;28;20435;-71
2021/12/14 02:11:21;;;;;;;122.85;51.45;;;;;;;0.11;100.00;100792.06;5034005;28;20046;-71
2021/12/14 02:14:07;;;;;;;114.43;49.63;;;;;;;0.13;100.00;100787.81;5033758;28;20048;-71
2021/12/14 02:16:55;;;;;;;195.00;54.10;;;;;;;0.10;100.00;100782.56;5033699;28;20073;-71
2021/12/14 02:19:40;;;;;;;169.48;48.97;;;;;;;0.08;100.00;100767.06;5034387;28;20057;-71
2021/12/14 02:22:26;;;;;;;131.48;48.03;;;;;;;0.11;100.00;100771.47;5033729;28;20034;-71
2021/12/14 02:25:12;;;;;;;116.10;45.95;;;;;;;0.04;100.00;100752.34;5033798;28;20053;-71
2021/12/14 02:28:01;;;;;;;121.72;46.85;;;;;;;0.04;100.00;100748.91;5033619;28;20048;-71
2021/12/14 02:30:51;;;;;;;108.07;46.05;;;;;;;0.01;100.00;100762.56;5033454;28;20115;-71
2021/12/14 02:33:39;;;;;;;141.77;51.85;;;;;;;0.01;100.00;100762.56;5019669;28;20428;-71
2021/12/14 02:36:37;;;;;;;117.80;53.00;;;;;;;-0.04;100.00;100756.38;5033455;28;20060;-71
2021/12/14 02:39:25;;;;;;;114.72;47.63;;;;;;;0.05;100.00;100768.69;5033435;28;20050;-71
2021/12/14 02:42:23;;;;;;;131.20;52.65;;;;;;;0.08;100.00;100771.34;5033407;28;20111;-71
2021/12/14 02:45:08;;;;;;;106.60;45.25;;;;;;;0.11;100.00;100756.88;5033382;28;20073;-71
2021/12/14 02:47:53;;;;;;;98.05;45.25;;;;;;;0.08;100.00;100754.19;5033252;28;20041;-71
2021/12/14 02:50:39;;;;;;;88.93;43.22;;;;;;;0.04;100.00;100757.50;5033910;28;20041;-71
2021/12/14 02:53:23;;;;;;;106.63;44.33;;;;;;;0.02;100.00;100751.41;5033371;28;20037;-71
2021/12/14 02:56:15;;;;;;;99.80;42.00;;;;;;;0.05;100.00;100748.06;5033369;28;20045;-71
2021/12/14 02:59:06;;;;;;;91.45;40.42;;;;;;;0.12;100.00;100750.00;5018987;28;20053;-71
2021/12/14 03:01:53;;;;;;;86.15;40.25;;;;;;;0.05;100.00;100750.66;5033014;28;20061;-71
2021/12/14 03:04:45;;;;;;;79.60;36.60;;;;;;;0.13;100.00;100751.75;5019222;28;20045;-71
2021/12/14 03:07:34;;;;;;;87.38;36.00;;;;;;;0.11;100.00;100751.72;5019059;28;20132;-71
2021/12/14 03:13:14;;;;;;;91.78;39.47;;;;;;;0.09;100.00;100757.66;5032799;28;20098;-72
2021/12/14 03:16:02;;;;;;;80.90;36.83;;;;;;;0.12;100.00;100753.47;5032862;28;20053;-71
2021/12/14 03:18:50;;;;;;;75.95;33.65;;;;;;;0.07;100.00;100749.00;5032786;28;20041;-71
2021/12/14 03:21:38;;;;;;;75.32;34.33;;;;;;;0.01;100.00;100743.66;5033482;28;20045;-71
2021/12/14 03:24:22;;;;;;;69.03;33.30;;;;;;;0.05;100.00;100728.34;5032743;28;20060;-71
2021/12/14 03:27:07;;;;;;;73.10;31.60;;;;;;;0.12;100.00;100748.31;5033430;28;20052;-71
2021/12/14 03:29:52;;;;;;;63.92;31.70;;;;;;;0.07;100.00;100739.56;5033261;28;20420;-71
2021/12/14 03:32:41;;;;;;;69.97;31.38;;;;;;;0.01;100.00;100736.78;5032675;28;20045;-71
2021/12/14 03:35:37;;;;;;;69.72;30.05;;;;;;;0.07;100.00;100733.56;5032775;28;20041;-71
2021/12/14 03:38:31;;;;;;;80.50;32.88;;;;;;;0.05;100.00;100727.47;5033262;28;20073;-71
2021/12/14 03:41:27;;;;;;;68.03;31.60;;;;;;;0.01;100.00;100726.50;5018896;28;20042;-71
2021/12/14 03:44:17;;;;;;;68.40;32.65;;;;;;;-0.02;100.00;100731.53;5018798;28;20037;-71
2021/12/14 03:47:32;;;;;;;75.10;31.63;;;;;;;0.03;100.00;100726.53;5032120;28;20363;-71
2021/12/14 03:50:25;;;;;;;82.15;33.97;;;;;;;-0.02;100.00;100732.41;5029573;28;20049;-71
2021/12/14 03:53:12;;;;;;;74.28;33.65;;;;;;;-0.01;100.00;100729.00;5018714;28;20054;-71
2021/12/14 03:56:00;;;;;;;86.97;34.75;;;;;;;-0.03;100.00;100734.97;5032227;28;20049;-71
2021/12/14 03:58:47;;;;;;;80.25;34.40;;;;;;;-0.09;100.00;100727.91;5031960;28;20081;-71
2021/12/14 04:01:37;;;;;;;96.28;36.45;;;;;;;-0.03;100.00;100742.69;5018379;28;20045;-71
2021/12/14 04:04:34;;;;;;;89.22;36.78;;;;;;;-0.03;100.00;100738.41;5032205;28;20034;-71
2021/12/14 04:07:20;;;;;;;89.47;39.15;;;;;;;0.01;100.00;100739.38;5032940;28;20042;-71
2021/12/14 04:10:22;;;;;;;88.45;36.03;;;;;;;0.03;100.00;100739.41;5032227;28;20054;-71
2021/12/14 04:13:08;;;;;;;83.70;36.90;;;;;;;0.03;100.00;100736.84;5018101;28;20053;-71
2021/12/14 04:15:53;;;;;;;84.45;35.08;;;;;;;-0.01;100.00;100729.00;5032061;28;20045;-71
2021/12/14 04:18:39;;;;;;;77.82;32.97;;;;;;;0.06;100.00;100730.06;5032118;28;20045;-71
2021/12/14 04:21:24;;;;;;;78.00;34.75;;;;;;;0.03;100.00;100722.25;5032876;28;20042;-71
2021/12/14 04:24:10;;;;;;;92.38;38.15;;;;;;;0.04;100.00;100728.31;5035502;28;20435;-71
2021/12/14 04:26:56;;;;;;;101.40;38.17;;;;;;;0.01;100.00;100734.22;5035384;28;20420;-71
2021/12/14 04:29:42;;;;;;;105.05;42.03;;;;;;;0.09;100.00;100735.31;5021435;28;20358;-71
2021/12/14 04:32:27;;;;;;;103.28;42.38;;;;;;;0.06;100.00;100739.50;5021654;28;20037;-71
2021/12/14 04:35:13;;;;;;;108.88;41.75;;;;;;;0.03;100.00;100734.25;5035467;28;20094;-71
2021/12/14 04:38:04;;;;;;;94.53;38.38;;;;;;;-0.01;100.00;100730.72;5035186;28;20438;-71
2021/12/14 04:53:34;;;;;;;96.97;39.10;;;;;;;0.09;100.00;100732.75;5035077;28;20046;-71
2021/12/14 04:56:27;;;;;;;137.32;41.13;;;;;;;0.07;100.00;100737.00;5035105;28;20153;-71
2021/12/14 04:59:23;;;;;;;167.55;45.55;;;;;;;0.17;100.00;100736.47;5021212;28;20475;-71
2021/12/14 05:02:15;;;;;;;173.05;41.65;;;;;;;0.17;100.00;100739.03;5034950;28;20358;-71
2021/12/14 05:05:25;;;;;;;113.72;42.78;;;;;;;0.14;100.00;100738.06;5035522;28;20046;-71
2021/12/14 05:11:03;;;;;;;102.18;42.67;;;;;;;0.18;100.00;100734.75;5034672;28;20041;-71
2021/12/14 05:13:57;;;;;;;101.82;37.88;;;;;;;0.12;100.00;100732.84;5034719;28;20444;-71
2021/12/14 05:16:54;;;;;;;89.07;37.47;;;;;;;0.17;100.00;100730.44;5034635;28;20116;-71
2021/12/14 05:19:42;;;;;;;93.57;40.63;;;;;;;0.14;100.00;100720.03;5034732;28;20514;-71
2021/12/14 05:22:33;;;;;;;97.65;38.58;;;;;;;0.15;100.00;100729.50;5034781;28;20042;-71
2021/12/14 05:25:25;;;;;;;86.72;38.65;;;;;;;0.13;100.00;100713.09;5035407;28;20041;-71
2021/12/14 05:28:15;;;;;;;95.38;41.72;;;;;;;0.08;100.00;100709.53;5034509;28;20042;-71
2021/12/14 05:31:03;;;;;;;94.97;37.95;;;;;;;0.13;100.00;100710.53;5020934;28;20050;-71
2021/12/14 05:33:58;;;;;;;113.97;42.33;;;;;;;0.09;100.00;100706.13;5021180;28;20053;-71
2021/12/14 05:36:51;;;;;;;;;;;;;;;0.16;100.00;100708.94;5034879;28;20099;-71
2021/12/14 05:45:48;;;;;;;156.27;57.42;;;;;;;0.04;100.00;100712.84;5034162;28;20038;-72
2021/12/14 05:48:36;;;;;;;138.15;57.17;;;;;;;0.14;100.00;100717.47;5034338;28;20072;-72
2021/12/14 05:51:22;;;;;;;118.40;56.50;;;;;;;0.18;100.00;100711.56;5020413;28;20041;-71
2021/12/14 05:54:07;;;;;;;148.30;64.07;;;;;;;0.13;100.00;100714.00;5034044;28;20056;-72
2021/12/14 05:56:54;;;;;;;157.82;67.82;;;;;;;0.17;100.00;100720.13;5034255;28;20138;-72
2021/12/14 05:59:39;;;;;;;151.32;64.22;;;;;;;0.09;100.00;100693.22;5034582;28;20446;-72
2021/12/14 06:02:24;;;;;;;151.55;66.35;;;;;;;0.21;100.00;100709.09;5033804;28;20045;-72
2021/12/14 06:05:14;;;;;;;146.45;63.83;;;;;;;0.19;100.00;100705.56;5032791;28;20045;-71
2021/12/14 06:07:59;;;;;;;171.15;66.45;;;;;;;0.17;100.00;100705.53;5032019;28;20038;-71
2021/12/14 06:10:43;;;;;;;156.45;63.28;;;;;;;0.17;100.00;100704.66;5031930;28;20594;-71
2021/12/14 06:13:41;;;;;;;132.43;60.75;;;;;;;0.14;100.00;100689.97;5046934;28;20049;-71
2021/12/14 06:16:36;;;;;;;116.57;51.83;;;;;;;0.20;100.00;100695.34;5051842;28;20046;-72
2021/12/14 06:19:27;;;;;;;125.60;55.40;;;;;;;0.18;100.00;100701.25;5037867;28;20053;-72
2021/12/14 06:22:20;;;;;;;124.53;55.03;;;;;;;0.23;100.00;100697.13;5111912;27;20057;-78
2021/12/14 06:25:12;;;;;;;117.32;53.20;;;;;;;0.23;100.00;100699.72;5052546;28;20089;-71
2021/12/14 06:27:59;;;;;;;101.32;45.80;;;;;;;0.23;100.00;100699.72;5052060;28;20041;-71
2021/12/14 06:30:46;;;;;;;95.30;43.42;;;;;;;0.25;100.00;100695.47;5052200;28;20044;-71
2021/12/14 06:33:33;;;;;;;100.32;40.60;;;;;;;0.23;100.00;100699.72;5053313;28;20112;-71
2021/12/14 06:37:04;;;;;;;97.32;41.00;;;;;;;0.29;100.00;100711.88;5053135;28;20045;-71
2021/12/14 06:40:11;;;;;;;86.53;39.88;;;;;;;0.30;100.00;100698.19;5039414;28;20049;-71
2021/12/14 06:43:01;;;;;;;93.70;39.17;;;;;;;0.32;100.00;100704.25;5053752;28;20116;-71
2021/12/14 06:45:55;;;;;;;90.28;40.80;;;;;;;0.34;100.00;100705.19;5053419;28;20056;-71
2021/12/14 06:48:42;;;;;;;;;;;;;;;0.38;100.00;100704.44;5054197;28;20446;-71
2021/12/14 06:51:34;;;;;;;82.85;38.38;;;;;;;0.40;100.00;100708.81;5039367;28;19993;-71
2021/12/14 06:54:31;;;;;;;78.47;37.22;;;;;;;0.40;100.00;100705.38;5040438;28;20090;-71
2021/12/14 06:57:21;;;;;;;89.97;40.08;;;;;;;0.43;100.00;100701.19;5053885;28;20360;-71
2021/12/14 07:00:14;;;;;;;;;;;;;;;0.43;100.00;100700.31;5040651;28;20300;-71
2021/12/14 07:03:59;;;;;;;99.35;45.83;;;;;;;0.42;100.00;100690.81;5053516;28;19921;-71
2021/12/14 07:06:49;;;;;;;132.20;50.30;;;;;;;0.46;100.00;100696.13;5028600;28;20148;-71
2021/12/14 07:09:38;;;;;;;86.80;42.53;;;;;;;0.56;100.00;100698.97;5053275;28;20049;-71
2021/12/14 07:12:35;;;;;;;99.13;46.88;;;;;;;0.58;100.00;100710.19;5052582;28;20044;-71
2021/12/14 07:15:24;;;;;;;116.75;47.60;;;;;;;0.65;100.00;100710.44;5053228;28;20057;-71
2021/12/14 07:18:09;;;;;;;100.40;43.50;;;;;;;0.67;100.00;100713.03;5053715;28;20036;-72
2021/12/14 07:20:55;;;;;;;87.30;40.55;;;;;;;0.69;100.00;100714.84;5052535;28;20049;-71
2021/12/14 07:23:39;;;;;;;83.55;38.33;;;;;;;0.72;100.00;100708.91;5052866;28;20383;-71
2021/12/14 07:26:23;;;;;;;79.70;38.38;;;;;;;0.75;100.00;100705.50;5052879;28;20053;-71
2021/12/14 07:29:07;;;;;;;71.95;36.42;;;;;;;0.79;100.00;100703.09;5038259;28;20438;-71
2021/12/14 07:31:51;;;;;;;81.07;40.33;;;;;;;0.84;100.00;100705.78;5052345;28;20057;-71
2021/12/14 07:34:36;;;;;;;76.55;35.47;;;;;;;0.77;100.00;100699.56;5053022;28;20056;-71
2021/12/14 07:37:33;;;;;;;75.32;37.38;;;;;;;0.88;100.00;100693.03;5052297;28;20053;-71
2021/12/14 07:40:20;;;;;;;79.97;38.50;;;;;;;0.90;100.00;100691.34;5052697;28;20052;-71
2021/12/14 07:43:24;;;;;;;94.40;39.55;;;;;;;0.94;100.00;100694.88;5053396;28;20045;-71
2021/12/14 07:46:19;;;;;;;71.97;33.47;;;;;;;1.05;100.00;100687.47;5052787;28;20036;-71
2021/12/14 07:49:18;;;;;;;68.20;30.38;;;;;;;1.00;100.00;100683.88;5052972;28;20052;-71
2021/12/14 07:52:08;;;;;;;63.92;28.63;;;;;;;1.03;100.00;100683.97;5052066;28;20380;-71
2021/12/14 07:55:08;;;;;;;63.03;27.67;;;;;;;1.00;100.00;100681.28;5053230;28;20048;-71
2021/12/14 07:57:53;;;;;;;115.60;45.50;;;;;;;1.02;100.00;100685.66;5037551;28;20137;-72
2021/12/14 08:00:42;;;;;;;107.38;55.17;;;;;;;1.02;100.00;100702.88;5038157;28;20041;-71
2021/12/14 08:03:33;;;;;;;114.22;57.60;;;;;;;1.00;100.00;100704.50;5052781;28;20041;-71
2021/12/14 08:06:17;;;;;;;94.10;45.25;;;;;;;1.11;100.00;100701.41;5052416;28;20047;-71
2021/12/14 08:09:02;;;;;;;93.25;41.90;;;;;;;1.08;100.00;100690.13;5037854;28;20045;-71
2021/12/14 08:11:47;;;;;;;81.40;45.17;;;;;;;1.02;100.00;100696.00;5051682;28;20056;-71
2021/12/14 08:14:31;;;;;;;76.30;43.92;;;;;;;1.02;100.00;100689.97;5051669;28;20041;-71
2021/12/14 08:17:15;;;;;;;67.78;38.00;;;;;;;1.08;100.00;100693.59;5051727;28;20450;-71
2021/12/14 08:20:00;;;;;;;63.55;31.88;;;;;;;1.11;100.00;100696.25;5052208;28;20052;-71
2021/12/14 08:22:44;;;;;;;67.38;33.00;;;;;;;1.04;100.00;100693.44;5052917;28;20041;-71
2021/12/14 08:25:30;;;;;;;83.70;39.72;;;;;;;1.12;100.00;100702.28;5051638;28;20045;-71
2021/12/14 08:28:18;;;;;;;100.13;47.33;;;;;;;1.09;100.00;100694.44;5038086;28;20041;-71
2021/12/14 08:31:05;;;;;;;99.38;49.80;;;;;;;1.05;100.00;100697.78;5037496;28;20435;-71
2021/12/14 08:34:06;;;;;;;82.75;45.88;;;;;;;1.12;100.00;100699.69;5052254;28;20045;-71
2021/12/14 08:36:55;;;;;;;76.60;40.90;;;;;;;1.12;100.00;100702.28;5052474;28;20045;-71
2021/12/14 08:39:57;;;;;;;63.83;35.33;;;;;;;1.16;100.00;100711.84;5052210;28;20361;-71
2021/12/14 08:42:51;;;;;;;59.87;33.17;;;;;;;1.27;100.00;100709.53;5037559;28;20037;-71
2021/12/14 08:45:40;;;;;;;61.78;32.50;;;;;;;1.21;100.00;100717.16;5052399;28;20044;-71
2021/12/14 08:48:36;;;;;;;65.82;34.88;;;;;;;1.25;100.00;100713.81;5037501;28;20041;-71
2021/12/14 08:51:30;;;;;;;63.17;34.45;;;;;;;1.28;100.00;100708.72;5037625;28;20041;-71
2021/12/14 08:54:25;;;;;;;67.25;33.92;;;;;;;1.28;100.00;100706.16;5051218;28;20378;-71
2021/12/14 08:57:14;;;;;;;64.15;33.70;;;;;;;1.13;100.00;100714.34;5051197;28;20128;-71
2021/12/14 09:00:10;;;;;;;64.35;33.60;;;;;;;1.15;100.00;100721.28;5036852;28;20060;-71
2021/12/14 09:03:00;;;;;;;64.88;34.65;;;;;;;1.32;100.00;100708.84;5051210;28;20049;-71
2021/12/14 09:05:48;;;;;;;63.22;34.40;;;;;;;1.31;100.00;100711.41;5051881;28;20048;-71
2021/12/14 09:08:34;;;;;;;77.32;37.95;;;;;;;1.38;100.00;100709.00;5053443;28;20094;-71
2021/12/14 09:11:22;;;;;;;83.78;41.92;;;;;;;1.45;100.00;100710.03;5054826;28;20422;-71
2021/12/14 09:14:09;;;;;;;89.72;47.80;;;;;;;1.41;100.00;100710.81;5054474;28;20049;-71
2021/12/14 09:16:57;;;;;;;107.32;63.72;;;;;;;1.39;100.00;100704.72;5040931;28;20048;-71
2021/12/14 09:19:50;;;;;;;107.07;68.50;;;;;;;1.53;100.00;100705.97;5054704;28;20045;-71
2021/12/14 09:22:41;;;;;;;98.18;56.10;;;;;;;1.56;100.00;100702.56;5055700;28;20037;-71
2021/12/14 09:25:28;;;;;;;88.75;51.95;;;;;;;1.65;100.00;100700.22;5054526;28;20128;-71
2021/12/14 09:28:13;;;;;;;80.05;47.63;;;;;;;1.55;100.00;100690.50;5055005;28;20044;-71
2021/12/14 09:31:02;;;;;;;77.88;43.83;;;;;;;1.65;100.00;100692.47;5055420;28;20041;-71
2021/12/14 09:33:49;;;;;;;63.58;36.42;;;;;;;1.66;100.00;100693.34;5055197;28;20048;-71
2021/12/14 09:36:33;;;;;;;59.13;33.30;;;;;;;1.72;100.00;100686.63;5054211;28;20041;-71
2021/12/14 09:39:30;;;;;;;66.43;35.53;;;;;;;1.71;100.00;100690.03;5053996;28;20419;-71
2021/12/14 09:42:26;;;;;;;57.53;34.70;;;;;;;1.69;100.00;100689.16;5054575;28;20347;-71
2021/12/14 09:45:20;;;;;;;51.22;29.58;;;;;;;1.63;100.00;100683.84;5054699;28;20096;-71
2021/12/14 09:48:05;;;;;;;54.38;28.02;;;;;;;1.63;100.00;100671.78;5054691;28;20145;-71
2021/12/14 09:50:51;;;;;;;57.50;28.80;;;;;;;1.73;100.00;100667.72;5054894;28;20037;-71
2021/12/14 09:53:40;;;;;;;55.30;29.95;;;;;;;1.78;100.00;100670.41;5054153;28;20360;-71
2021/12/14 09:56:28;;;;;;;62.22;31.20;;;;;;;1.75;100.00;100660.88;5054519;28;20045;-71
2021/12/14 09:59:17;;;;;;;69.53;39.03;;;;;;;1.89;100.00;100658.63;5053825;28;20439;-71
2021/12/14 10:02:08;;;;;;;57.45;33.15;;;;;;;1.98;100.00;100645.03;5053756;28;20053;-71
2021/12/14 10:05:01;;;;;;;65.72;33.83;;;;;;;1.92;100.00;100645.78;5054486;28;20045;-71
2021/12/14 10:07:46;;;;;;;62.38;31.00;;;;;;;1.96;100.00;100657.94;5054268;28;20352;-71
2021/12/14 10:10:36;;;;;;;76.45;38.58;;;;;;;1.97;100.00;100653.63;5054321;28;20041;-71
2021/12/14 10:13:20;;;;;;;185.18;101.40;;;;;;;1.94;100.00;100659.59;5054047;28;20048;-71
2021/12/14 10:16:06;;;;;;;166.88;89.72;;;;;;;1.97;100.00;100656.22;5054522;28;20052;-71
2021/12/14 10:19:04;;;;;;;142.55;76.05;;;;;;;1.98;100.00;100655.38;5054330;28;20045;-71
2021/12/14 10:21:54;;;;;;;116.07;64.20;;;;;;;1.94;100.00;100662.19;5054589;28;20045;-71
2021/12/14 10:24:39;;;;;;;107.32;58.22;;;;;;;1.94;100.00;100662.19;5054107;28;20038;-71
2021/12/14 10:27:27;;;;;;;95.47;48.80;;;;;;;1.82;100.00;100657.63;5054410;28;20064;-71
2021/12/14 10:30:17;;;;;;;72.40;36.95;;;;;;;1.75;100.00;100650.53;5053314;28;20346;-71
2021/12/14 10:33:02;;;;;;;78.97;35.95;;;;;;;1.92;100.00;100655.22;5053242;28;20047;-71
2021/12/14 10:35:57;;;;;;;80.85;38.13;;;;;;;1.86;100.00;100653.38;5053683;28;20036;-71
2021/12/14 10:39:02;;;;;;;78.30;34.88;;;;;;;1.91;100.00;100651.75;5054222;28;20144;-71
2021/12/14 10:44:54;;;;;;;99.13;41.05;;;;;;;1.82;100.00;100656.72;5052148;28;20057;-71
2021/12/14 10:47:41;;;;;;;111.35;40.53;;;;;;;1.78;100.00;100648.03;5053586;28;20037;-71
2021/12/14 10:50:31;;;;;;;92.57;40.00;;;;;;;1.63;100.00;100656.28;5053277;28;20064;-71
2021/12/14 10:53:19;;;;;;;158.55;55.28;;;;;;;1.55;100.00;100649.19;5051040;28;20403;-71
2021/12/14 10:56:11;;;;;;;148.60;64.10;;;;;;;1.58;100.00;100644.09;5051807;28;20033;-71
2021/12/14 10:59:00;;;;;;;169.07;69.95;;;;;;;1.58;100.00;100646.69;5051531;28;20057;-71
2021/12/14 11:01:50;;;;;;;126.00;54.00;;;;;;;1.59;100.00;100640.66;5053433;28;20124;-71
2021/12/14 11:04:39;;;;;;;118.38;53.65;;;;;;;1.53;100.00;100631.09;5053966;28;20042;-72
2021/12/14 11:07:37;;;;;;;123.15;50.88;;;;;;;1.51;100.00;100634.47;5053195;28;20045;-71
2021/12/14 11:10:33;;;;;;;106.57;46.08;;;;;;;1.58;100.00;100637.22;5053059;28;20037;-71
2021/12/14 11:13:18;;;;;;;112.32;52.50;;;;;;;1.57;100.00;100626.88;5053552;28;20048;-72
2021/12/14 11:16:03;;;;;;;102.88;42.90;;;;;;;1.58;100.00;100623.44;5053564;28;20037;-71
2021/12/14 11:18:49;;;;;;;145.75;55.13;;;;;;;1.51;100.00;100626.72;5053520;28;20053;-71
2021/12/14 11:21:33;;;;;;;160.90;56.83;;;;;;;1.46;100.00;100628.28;5053241;28;20053;-71
2021/12/14 11:24:31;;;;;;;133.25;50.10;;;;;;;1.47;100.00;100627.47;5052679;28;20041;-71
2021/12/14 11:27:25;;;;;;;89.32;44.28;;;;;;;1.59;100.00;100614.84;5053696;28;20045;-72
2021/12/14 11:30:21;;;;;;;144.07;43.88;;;;;;;1.46;100.00;100623.13;5053094;28;20037;-71
2021/12/14 11:33:15;;;;;;;110.32;43.10;;;;;;;1.43;100.00;100621.38;5052233;28;20045;-72
2021/12/14 11:36:14;;;;;;;90.60;43.65;;;;;;;1.36;100.00;100620.31;5052819;28;20056;-72
2021/12/14 11:39:24;;;;;;;106.18;50.10;;;;;;;1.36;100.00;100627.19;5052212;28;20379;-72
2021/12/14 11:42:21;;;;;;;140.10;49.10;;;;;;;1.40;100.00;100632.47;5052945;28;20388;-72
2021/12/14 11:45:15;;;;;;;86.05;43.63;;;;;;;1.33;100.00;100624.53;5052238;28;20374;-72
2021/12/14 11:47:59;;;;;;;112.20;42.92;;;;;;;1.35;100.00;100626.31;5052107;28;20088;-72
2021/12/14 11:50:46;;;;;;;120.25;43.17;;;;;;;1.31;100.00;100640.00;5038632;28;20048;-72
2021/12/14 11:53:31;;;;;;;122.75;50.70;;;;;;;1.32;100.00;100626.25;5053001;28;20045;-71
2021/12/14 11:56:19;;;;;;;115.60;49.20;;;;;;;1.35;100.00;100623.75;5052576;28;20052;-72
2021/12/14 11:59:06;;;;;;;127.32;48.42;;;;;;;1.29;100.00;100622.72;5052793;28;20128;-72
2021/12/14 12:01:54;;;;;;;123.95;55.95;;;;;;;1.33;100.00;100621.94;5052489;28;20045;-72
2021/12/14 12:04:43;;;;;;;111.65;50.63;;;;;;;1.37;100.00;100616.91;5052066;28;20045;-72
2021/12/14 12:10:43;;;;;;;105.22;40.17;;;;;;;1.35;100.00;100604.81;5029441;28;20128;-72
2021/12/14 12:13:38;;;;;;;130.10;38.35;;;;;;;1.29;100.00;100604.63;5052758;28;20078;-71
2021/12/14 12:16:25;;;;;;;93.82;35.10;;;;;;;1.30;100.00;100607.28;5052057;28;20086;-72
2021/12/14 12:19:16;;;;;;;92.75;34.80;;;;;;;1.33;100.00;100615.09;5052521;28;20388;-72
2021/12/14 12:22:19;;;;;;;98.18;32.45;;;;;;;1.28;100.00;100600.31;5051741;28;20041;-71
2021/12/14 12:25:14;;;;;;;75.88;31.15;;;;;;;1.30;100.00;100608.97;5052009;28;20048;-71
2021/12/14 12:28:04;;;;;;;81.40;31.90;;;;;;;1.31;100.00;100602.97;5051682;28;20458;-72
2021/12/14 12:31:10;;;;;;;118.28;36.08;;;;;;;1.24;100.00;100606.25;5037434;28;20041;-71
2021/12/14 12:33:57;;;;;;;100.18;34.42;;;;;;;1.22;100.00;100595.00;5052286;28;20120;-71
2021/12/14 12:36:42;;;;;;;84.38;33.50;;;;;;;1.28;100.00;100596.03;5052782;28;20390;-72
2021/12/14 12:39:29;;;;;;;99.30;32.67;;;;;;;1.26;100.00;100594.25;5051514;28;20450;-71
2021/12/14 12:42:16;;;;;;;70.80;32.25;;;;;;;1.26;100.00;100596.81;5052873;28;20044;-71
2021/12/14 12:45:00;;;;;;;131.38;38.28;;;;;;;1.32;100.00;100602.13;5055491;28;20044;-71
2021/12/14 12:47:44;;;;;;;78.50;33.72;;;;;;;1.28;100.00;100595.16;5054986;28;20384;-71
2021/12/14 12:50:29;;;;;;;92.63;33.55;;;;;;;1.25;100.00;100584.75;5055944;28;20068;-71
2021/12/14 12:53:26;;;;;;;82.50;34.35;;;;;;;1.29;100.00;100584.88;5055354;28;20045;-71
2021/12/14 12:56:14;;;;;;;131.88;42.20;;;;;;;1.22;100.00;100576.94;5056019;28;20062;-71
2021/12/14 12:58:58;;;;;;;98.63;41.83;;;;;;;1.23;100.00;100569.22;5055566;28;20057;-72
2021/12/14 13:01:42;;;;;;;143.63;39.67;;;;;;;1.19;100.00;100582.88;5055202;28;20040;-71
2021/12/14 13:04:41;;;;;;;104.97;41.33;;;;;;;1.16;100.00;100580.22;5040670;28;20117;-71
2021/12/14 13:07:32;;;;;;;94.72;38.33;;;;;;;1.20;100.00;100591.50;5054574;28;20041;-71
2021/12/14 13:10:27;;;;;;;135.02;46.10;;;;;;;1.11;100.00;100595.63;5054643;28;20053;-71
2021/12/14 13:13:21;;;;;;;135.93;41.70;;;;;;;1.06;100.00;100594.59;5055733;28;20120;-71
2021/12/14 13:16:43;;;;;;;167.65;44.20;;;;;;;1.09;100.00;100593.81;5054997;28;20045;-71
2021/12/14 13:19:30;;;;;;;79.15;36.08;;;;;;;1.10;100.00;100590.41;5054385;28;20075;-71
2021/12/14 13:22:13;;;;;;;105.13;40.45;;;;;;;1.04;100.00;100600.56;5055393;28;20037;-71
2021/12/14 13:24:58;;;;;;;93.13;34.83;;;;;;;1.11;100.00;100599.91;5055312;28;20045;-72
2021/12/14 13:27:42;;;;;;;150.90;35.28;;;;;;;1.05;100.00;100595.44;5055546;28;20414;-71
2021/12/14 13:30:28;;;;;;;84.88;29.92;;;;;;;1.02;100.00;100603.09;5055226;28;20052;-71
2021/12/14 13:33:25;;;;;;;84.53;28.92;;;;;;;0.97;100.00;100593.50;5055535;28;20141;-72
2021/12/14 13:36:09;;;;;;;95.43;25.67;;;;;;;1.00;100.00;100599.59;5054949;28;20116;-71